CheckWX is a tool to help pilots better visualize weather data.  It is not intended as a substitute for an official pre-flight weather briefing.

07:24:03 UTC

KOAJ METAR
Albert J Ellis Airport
Jacksonville, North Carolina, USA
Current

28 mins ago

KOAJ 180656Z AUTO 19005KT 10SM CLR 23/23 A3006 RMK AO2 SLP181 T02280228
Observed
Jun-18 @ 06:56 UTC
Wind
  • 190° at 5 KTS
Visibility
10 SM
Flight Rules
VFR
Cloud Levels
  • Clear skies
Temperature
23°C / 73°F
Dewpoint
23°C / 73°F
Humidity
100%
Altimeter
30.06" Hg
Pressure
1017.92 hPa
Previous

1 hour ago

KOAJ 180556Z AUTO 20005KT 10SM CLR 23/23 A3007 RMK AO2 SLP185 T02280228 10283 20228 56003
Observed
Jun-18 @ 05:56 UTC
Wind
  • 200° at 5 KTS
Visibility
10 SM
Flight Rules
VFR
Cloud Levels
  • Clear skies
Temperature
23°C / 73°F
Dewpoint
23°C / 73°F
Humidity
100%
Altimeter
30.07" Hg
Pressure
1018.32 hPa
Previous

2 hours ago

KOAJ 180456Z AUTO 20006KT 10SM CLR 23/23 A3007 RMK AO2 SLP186 T02330228 403500200
Observed
Jun-18 @ 04:56 UTC
Wind
  • 200° at 6 KTS
Visibility
10 SM
Flight Rules
VFR
Cloud Levels
  • Clear skies
Temperature
23°C / 73°F
Dewpoint
23°C / 73°F
Humidity
100%
Altimeter
30.07" Hg
Pressure
1018.32 hPa